createdAt,value
2023-05-10T00:00:00.857Z,96
2023-05-10T00:05:00.858Z,96
2023-05-10T00:10:00.762Z,96
2023-05-10T00:15:00.848Z,96
2023-05-10T00:20:00.651Z,96
2023-05-10T00:25:00.829Z,96
2023-05-10T00:30:00.866Z,96
2023-05-10T00:35:00.632Z,96
2023-05-10T00:40:00.728Z,96
2023-05-10T00:45:00.889Z,96
2023-05-10T00:50:01.083Z,96
2023-05-10T00:55:00.884Z,96
2023-05-10T01:00:00.551Z,96
2023-05-10T01:05:00.817Z,96
2023-05-10T01:10:01.945Z,96
2023-05-10T01:15:00.803Z,96
2023-05-10T01:20:00.879Z,96
2023-05-10T01:25:01.294Z,96
2023-05-10T01:30:09.526Z,97
2023-05-10T01:35:00.857Z,97
2023-05-10T01:40:00.880Z,97
2023-05-10T01:45:01.379Z,97
2023-05-10T01:50:00.920Z,97
2023-05-10T01:55:01.447Z,97
2023-05-10T02:00:01.069Z,97
2023-05-10T02:05:01.200Z,97
2023-05-10T02:10:01.398Z,97
2023-05-10T02:15:01.119Z,97
2023-05-10T02:20:00.923Z,97
2023-05-10T02:25:00.748Z,97
2023-05-10T02:30:01.968Z,97
2023-05-10T02:35:00.941Z,97
2023-05-10T02:40:00.916Z,97
2023-05-10T02:45:02.526Z,97
2023-05-10T02:50:01.723Z,97
2023-05-10T02:55:00.852Z,96
2023-05-10T03:00:00.500Z,96
2023-05-10T03:05:01.220Z,96
2023-05-10T03:10:01.288Z,96
2023-05-10T03:15:01.320Z,96
2023-05-10T03:20:00.734Z,96
2023-05-10T03:25:02.420Z,96
2023-05-10T03:30:00.810Z,96
2023-05-10T03:35:00.920Z,96
2023-05-10T03:40:02.044Z,96
2023-05-10T03:45:00.858Z,96
2023-05-10T03:50:01.178Z,96
2023-05-10T03:55:01.239Z,96
2023-05-10T04:00:00.841Z,96
2023-05-10T04:05:01.112Z,96
2023-05-10T04:10:00.930Z,96
2023-05-10T04:15:00.824Z,96
2023-05-10T04:20:00.806Z,95
2023-05-10T04:25:00.665Z,95
2023-05-10T04:30:01.537Z,95
2023-05-10T04:35:00.792Z,95
2023-05-10T04:40:00.665Z,95
2023-05-10T04:45:00.692Z,95
2023-05-10T04:50:00.842Z,95
2023-05-10T04:55:00.965Z,95
2023-05-10T05:00:00.964Z,95
2023-05-10T05:05:02.049Z,95
2023-05-10T05:10:01.304Z,95
2023-05-10T05:15:01.119Z,95
2023-05-10T05:20:00.554Z,95
2023-05-10T05:25:00.605Z,95
2023-05-10T05:30:02.123Z,95
2023-05-10T05:35:00.680Z,95
2023-05-10T05:40:00.675Z,95
2023-05-10T05:45:00.467Z,95
2023-05-10T05:50:01.911Z,95
2023-05-10T05:55:01.060Z,95
2023-05-10T06:00:00.789Z,95
2023-05-10T06:05:00.795Z,95
2023-05-10T06:10:00.764Z,95
2023-05-10T06:15:00.900Z,95
2023-05-10T06:20:00.961Z,95
2023-05-10T06:25:00.836Z,95
2023-05-10T06:30:11.905Z,95
2023-05-10T06:35:00.785Z,96
2023-05-10T06:40:00.786Z,96
2023-05-10T06:45:00.886Z,96
2023-05-10T06:50:00.723Z,96
2023-05-10T06:55:00.480Z,96
2023-05-10T07:00:01.037Z,96
2023-05-10T07:05:03.250Z,96
2023-05-10T07:10:00.897Z,96
2023-05-10T07:15:00.867Z,96
2023-05-10T07:20:02.153Z,96
2023-05-10T07:25:01.067Z,96
2023-05-10T07:30:00.949Z,96
2023-05-10T07:35:00.912Z,96
2023-05-10T07:40:00.992Z,95
2023-05-10T07:45:00.793Z,95
2023-05-10T07:50:01.509Z,95
2023-05-10T07:55:00.656Z,95
2023-05-10T08:00:00.767Z,93
2023-05-10T08:05:00.861Z,92
2023-05-10T08:10:00.930Z,91
2023-05-10T08:15:00.578Z,91
2023-05-10T08:20:01.023Z,90
2023-05-10T08:25:00.832Z,90
2023-05-10T08:30:00.722Z,90
2023-05-10T08:35:01.792Z,89
2023-05-10T08:40:00.876Z,89
2023-05-10T08:45:01.312Z,89
2023-05-10T08:50:01.177Z,88
2023-05-10T08:55:00.752Z,88
2023-05-10T09:00:01.016Z,88
2023-05-10T09:05:01.278Z,89
2023-05-10T09:10:01.109Z,89
2023-05-10T09:15:01.123Z,89
2023-05-10T09:20:00.686Z,88
2023-05-10T09:25:00.946Z,88
2023-05-10T09:30:00.789Z,88
2023-05-10T09:35:01.122Z,88
2023-05-10T09:40:01.029Z,89
2023-05-10T09:45:00.697Z,89
2023-05-10T09:50:01.296Z,89
2023-05-10T09:55:00.619Z,88
2023-05-10T10:00:00.780Z,88
2023-05-10T10:05:01.209Z,87
2023-05-10T10:10:00.888Z,86
2023-05-10T10:15:00.752Z,85
2023-05-10T10:20:00.847Z,84
2023-05-10T10:25:01.187Z,82
2023-05-10T10:30:00.871Z,83
2023-05-10T10:35:00.610Z,83
2023-05-10T10:40:00.791Z,83
2023-05-10T10:45:00.988Z,83
2023-05-10T10:50:00.916Z,83
2023-05-10T10:55:01.449Z,83
2023-05-10T11:00:01.161Z,82
2023-05-10T11:05:00.753Z,81
2023-05-10T11:10:00.751Z,81
2023-05-10T11:15:01.151Z,81
2023-05-10T11:20:00.647Z,80
2023-05-10T11:25:00.600Z,79
2023-05-10T11:30:02.595Z,78
2023-05-10T11:35:01.252Z,77
2023-05-10T11:40:00.793Z,75
2023-05-10T11:45:00.512Z,76
2023-05-10T11:50:02.581Z,75
2023-05-10T11:55:00.861Z,76
2023-05-10T12:00:00.609Z,76
2023-05-10T12:05:01.738Z,73
2023-05-10T12:10:01.218Z,74
2023-05-10T12:15:00.940Z,75
2023-05-10T12:20:00.877Z,76
2023-05-10T12:25:00.676Z,76
2023-05-10T12:30:01.129Z,78
2023-05-10T12:35:00.877Z,77
2023-05-10T12:40:01.026Z,77
2023-05-10T12:45:01.439Z,77
2023-05-10T12:50:00.486Z,77
2023-05-10T12:55:00.983Z,77
2023-05-10T13:00:00.650Z,77
2023-05-10T13:05:01.208Z,77
2023-05-10T13:10:00.565Z,77
2023-05-10T13:15:00.879Z,76
2023-05-10T13:20:00.672Z,76
2023-05-10T13:25:00.615Z,75
2023-05-10T13:30:01.058Z,74
2023-05-10T13:35:00.857Z,74
2023-05-10T13:40:00.961Z,74
2023-05-10T13:45:00.782Z,76
2023-05-10T13:50:00.927Z,76
2023-05-10T13:55:00.637Z,76
2023-05-10T14:00:00.589Z,75
2023-05-10T14:05:00.841Z,76
2023-05-10T14:10:00.943Z,76
2023-05-10T14:15:00.858Z,75
2023-05-10T14:20:00.785Z,75
2023-05-10T14:25:01.170Z,74
2023-05-10T14:30:01.262Z,72
2023-05-10T14:35:01.271Z,73
2023-05-10T14:40:00.788Z,72
2023-05-10T14:45:00.517Z,73
2023-05-10T14:50:00.683Z,74
2023-05-10T14:55:00.705Z,74
2023-05-10T15:00:00.802Z,75
2023-05-10T15:05:00.710Z,75
2023-05-10T15:10:00.642Z,75
2023-05-10T15:15:01.187Z,76
2023-05-10T15:20:01.435Z,75
2023-05-10T15:25:00.663Z,75
2023-05-10T15:30:00.992Z,76
2023-05-10T15:35:01.656Z,76
2023-05-10T15:40:00.840Z,83
2023-05-10T15:45:00.607Z,86
2023-05-10T15:50:00.756Z,87
2023-05-10T15:55:00.851Z,88
2023-05-10T16:00:00.962Z,89
2023-05-10T16:05:00.838Z,89
2023-05-10T16:10:01.307Z,90
2023-05-10T16:15:00.819Z,90
2023-05-10T16:20:00.851Z,90
2023-05-10T16:25:01.326Z,91
2023-05-10T16:30:00.750Z,91
2023-05-10T16:35:01.412Z,91
2023-05-10T16:40:01.529Z,91
2023-05-10T16:45:01.043Z,91
2023-05-10T16:50:00.653Z,91
2023-05-10T16:55:00.826Z,91
2023-05-10T17:00:00.956Z,91
2023-05-10T17:05:01.759Z,90
2023-05-10T17:10:01.242Z,90
2023-05-10T17:15:01.448Z,90
2023-05-10T17:20:01.106Z,89
2023-05-10T17:25:00.918Z,89
2023-05-10T17:30:00.953Z,88
2023-05-10T17:35:00.883Z,88
2023-05-10T17:40:02.411Z,88
2023-05-10T17:45:01.131Z,87
2023-05-10T17:50:00.636Z,86
2023-05-10T17:55:01.013Z,87
2023-05-10T18:00:00.692Z,86
2023-05-10T18:05:00.775Z,87
2023-05-10T18:10:00.586Z,87
2023-05-10T18:15:01.045Z,87
2023-05-10T18:20:00.749Z,86
2023-05-10T18:25:00.745Z,86
2023-05-10T18:30:01.035Z,87
2023-05-10T18:35:01.037Z,87
2023-05-10T18:40:01.017Z,87
2023-05-10T18:45:01.568Z,88
2023-05-10T18:50:00.602Z,89
2023-05-10T18:55:00.555Z,89
2023-05-10T19:00:00.532Z,90
2023-05-10T19:05:01.834Z,91
2023-05-10T19:10:00.644Z,91
2023-05-10T19:15:01.454Z,91
2023-05-10T19:20:00.658Z,92
2023-05-10T19:25:00.523Z,92
2023-05-10T19:30:00.673Z,92
2023-05-10T19:35:00.702Z,92
2023-05-10T19:40:00.787Z,93
2023-05-10T19:45:02.237Z,93
2023-05-10T19:50:00.945Z,94
2023-05-10T19:55:00.812Z,94
2023-05-10T20:00:00.892Z,94
2023-05-10T20:05:00.573Z,94
2023-05-10T20:10:01.305Z,94
2023-05-10T20:15:00.896Z,94
2023-05-10T20:20:00.630Z,94
2023-05-10T20:25:00.729Z,95
2023-05-10T20:30:00.563Z,95
2023-05-10T20:35:01.114Z,95
2023-05-10T20:40:00.579Z,95
2023-05-10T20:45:00.592Z,95
2023-05-10T20:50:00.917Z,95
2023-05-10T20:55:00.512Z,95
2023-05-10T21:00:00.987Z,95
2023-05-10T21:05:01.529Z,95
2023-05-10T21:10:00.643Z,95
2023-05-10T21:15:00.897Z,95
2023-05-10T21:20:00.830Z,95
2023-05-10T21:25:01.020Z,95
2023-05-10T21:30:01.070Z,95
2023-05-10T21:35:01.189Z,95
2023-05-10T21:40:00.990Z,95
2023-05-10T21:45:01.463Z,95
2023-05-10T21:50:01.113Z,95
2023-05-10T21:55:00.541Z,95
2023-05-10T22:00:00.646Z,95
2023-05-10T22:05:00.864Z,95
2023-05-10T22:10:01.860Z,95
2023-05-10T22:15:10.217Z,95
2023-05-10T22:20:00.524Z,95
2023-05-10T22:25:01.424Z,96
2023-05-10T22:30:00.749Z,96
2023-05-10T22:35:01.526Z,96
2023-05-10T22:40:00.607Z,96
2023-05-10T22:45:01.637Z,96
2023-05-10T22:50:00.703Z,96
2023-05-10T22:55:00.886Z,96
2023-05-10T23:00:01.012Z,96
2023-05-10T23:05:00.719Z,96
2023-05-10T23:10:00.865Z,96
2023-05-10T23:15:00.862Z,96
2023-05-10T23:20:00.783Z,96
2023-05-10T23:25:00.984Z,96
2023-05-10T23:30:00.744Z,96
2023-05-10T23:35:00.963Z,96
2023-05-10T23:40:01.035Z,96
2023-05-10T23:45:01.198Z,96
2023-05-10T23:50:00.881Z,96
2023-05-10T23:55:00.937Z,96
